Time;durP1;ratioP1;P1;durP2;ratioP2;P2;SDS_P1;SDS_P2;PMS_P1;PMS_P2;Temp;Humidity;BMP_temperature;BMP_pressure;BME280_temperature;BME280_humidity;BME280_pressure;Samples;Min_cycle;Max_cycle;Signal;HPM_P1;HPM_P2
2021/12/28 00:00:12;;;;;;;46.60;28.30;;;;;;;;;;5048989;28;20210;-72
2021/12/28 00:02:41;;;;;;;45.20;27.70;;;;;;;;;;5052102;28;20281;-72
2021/12/28 00:05:09;;;;;;;43.97;27.00;;;;;;;;;;5051453;28;20210;-72
2021/12/28 00:07:36;;;;;;;45.50;25.97;;;;;;;;;;5051035;28;20311;-72
2021/12/28 00:10:05;;;;;;;43.33;28.07;;;;;;;;;;5052050;28;20287;-72
2021/12/28 00:12:34;;;;;;;66.17;30.83;;;;;;;;;;5051865;28;20223;-72
2021/12/28 00:15:06;;;;;;;45.37;27.43;;;;;;;;;;5051082;28;20217;-72
2021/12/28 00:20:19;;;;;;;47.03;27.57;;;;;;;;;;5052603;28;20235;-72
2021/12/28 00:22:45;;;;;;;79.00;34.80;;;;;;;;;;5049737;28;20254;-72
2021/12/28 00:25:14;;;;;;;65.37;32.03;;;;;;;;;;5048795;28;20232;-72
2021/12/28 00:27:40;;;;;;;73.97;33.77;;;;;;;;;;5052003;28;20216;-72
2021/12/28 00:30:07;;;;;;;50.67;28.17;;;;;;;;;;5049664;28;20294;-72
2021/12/28 00:32:34;;;;;;;58.10;31.40;;;;;;;;;;5049774;28;20495;-72
2021/12/28 00:35:01;;;;;;;59.70;29.17;;;;;;;;;;5052933;28;20277;-72
2021/12/28 00:37:28;;;;;;;50.40;27.50;;;;;;;;;;5051010;28;20215;-73
2021/12/28 00:39:55;;;;;;;66.13;31.60;;;;;;;;;;5049867;28;20226;-72
2021/12/28 00:42:21;;;;;;;45.43;27.33;;;;;;;;;;5051894;28;20624;-72
2021/12/28 00:44:48;;;;;;;49.43;29.17;;;;;;;;;;5051694;28;20293;-72
2021/12/28 00:47:14;;;;;;;57.50;30.03;;;;;;;;;;5051660;28;20282;-72
2021/12/28 00:49:41;;;;;;;52.70;29.17;;;;;;;;;;5050181;28;20218;-72
2021/12/28 00:52:11;;;;;;;43.93;26.97;;;;;;;;;;5050204;28;20213;-72
2021/12/28 00:54:39;;;;;;;57.07;30.53;;;;;;;;;;5050234;28;20613;-72
2021/12/28 00:57:06;;;;;;;56.53;29.20;;;;;;;;;;5051532;28;20215;-72
2021/12/28 00:59:33;;;;;;;53.00;27.50;;;;;;;;;;5049926;28;20733;-72
2021/12/28 01:01:59;;;;;;;47.47;27.17;;;;;;;;;;5049128;28;20276;-72
2021/12/28 01:04:27;;;;;;;45.63;27.80;;;;;;;;;;5051346;28;21148;-72
2021/12/28 01:06:53;;;;;;;41.70;25.60;;;;;;;;;;5049064;28;20216;-72
2021/12/28 01:09:20;;;;;;;47.73;27.67;;;;;;;;;;5050931;28;20211;-72
2021/12/28 01:11:48;;;;;;;50.33;27.97;;;;;;;;;;5051072;28;20236;-72
2021/12/28 01:14:14;;;;;;;44.87;26.87;;;;;;;;;;5049954;28;20437;-72
2021/12/28 01:16:40;;;;;;;42.37;24.27;;;;;;;;;;5048935;28;20764;-72
2021/12/28 01:19:08;;;;;;;44.43;25.30;;;;;;;;;;5051104;28;20228;-72
2021/12/28 01:21:34;;;;;;;40.57;24.30;;;;;;;;;;5051092;28;20733;-72
2021/12/28 01:24:01;;;;;;;41.07;24.43;;;;;;;;;;5049397;28;20313;-72
2021/12/28 01:26:27;;;;;;;41.23;24.87;;;;;;;;;;5049718;28;20228;-72
2021/12/28 01:28:55;;;;;;;38.27;25.13;;;;;;;;;;5050457;28;20690;-72
2021/12/28 01:31:21;;;;;;;33.20;22.07;;;;;;;;;;5050352;28;20235;-72
2021/12/28 01:33:48;;;;;;;41.63;25.20;;;;;;;;;;5051671;28;20274;-73
2021/12/28 01:36:14;;;;;;;38.50;23.83;;;;;;;;;;5051244;28;20221;-72
2021/12/28 01:38:41;;;;;;;37.47;24.03;;;;;;;;;;5048489;28;20271;-72
2021/12/28 01:41:10;;;;;;;41.17;24.63;;;;;;;;;;5050705;28;20585;-72
2021/12/28 01:43:38;;;;;;;46.57;25.70;;;;;;;;;;5050359;28;20290;-72
2021/12/28 01:46:06;;;;;;;35.80;23.00;;;;;;;;;;5051497;28;21524;-72
2021/12/28 01:48:36;;;;;;;43.53;23.73;;;;;;;;;;5049090;28;20229;-72
2021/12/28 01:51:06;;;;;;;40.50;23.67;;;;;;;;;;5050703;28;20299;-73
2021/12/28 01:53:33;;;;;;;52.27;26.17;;;;;;;;;;5050843;28;20211;-72
2021/12/28 01:56:02;;;;;;;44.57;25.33;;;;;;;;;;5049618;28;20230;-73
2021/12/28 01:58:29;;;;;;;36.17;23.10;;;;;;;;;;5050757;28;20262;-72
2021/12/28 02:00:56;;;;;;;44.30;26.00;;;;;;;;;;5051309;28;20220;-72
2021/12/28 02:03:25;;;;;;;49.70;26.57;;;;;;;;;;5054918;28;20747;-72
2021/12/28 02:05:52;;;;;;;45.13;24.77;;;;;;;;;;5056083;28;20268;-72
2021/12/28 02:08:19;;;;;;;45.40;24.87;;;;;;;;;;5052208;28;20618;-72
2021/12/28 02:10:47;;;;;;;40.67;25.43;;;;;;;;;;5054542;28;20248;-72
2021/12/28 02:13:14;;;;;;;33.37;21.57;;;;;;;;;;5054294;28;20296;-72
2021/12/28 02:15:41;;;;;;;47.13;24.30;;;;;;;;;;5053354;28;20264;-72
2021/12/28 02:18:09;;;;;;;44.20;23.97;;;;;;;;;;5052354;28;20868;-72
2021/12/28 02:20:38;;;;;;;47.50;24.30;;;;;;;;;;5054983;28;20563;-72
2021/12/28 02:23:05;;;;;;;39.97;24.73;;;;;;;;;;5052870;28;20217;-72
2021/12/28 02:25:32;;;;;;;36.50;21.20;;;;;;;;;;5053785;28;20233;-73
2021/12/28 02:27:59;;;;;;;41.63;23.57;;;;;;;;;;5053351;28;20215;-72
2021/12/28 02:30:26;;;;;;;38.03;22.97;;;;;;;;;;5051754;28;20212;-72
2021/12/28 02:32:53;;;;;;;35.30;22.83;;;;;;;;;;5053131;28;20220;-72
2021/12/28 02:35:22;;;;;;;45.10;23.53;;;;;;;;;;5054217;28;20212;-72
2021/12/28 02:37:52;;;;;;;45.83;23.83;;;;;;;;;;5053554;28;20220;-72
2021/12/28 02:40:20;;;;;;;36.80;21.17;;;;;;;;;;5051998;28;20285;-72
2021/12/28 02:42:47;;;;;;;36.63;21.87;;;;;;;;;;5055148;28;20211;-72
2021/12/28 02:45:16;;;;;;;44.37;23.87;;;;;;;;;;5053053;28;20229;-72
2021/12/28 02:47:45;;;;;;;42.13;24.53;;;;;;;;;;5051538;28;20645;-72
2021/12/28 02:50:14;;;;;;;44.20;22.97;;;;;;;;;;5055361;28;20215;-72
2021/12/28 02:52:40;;;;;;;42.70;24.57;;;;;;;;;;5052499;28;20216;-72
2021/12/28 02:55:11;;;;;;;45.50;24.63;;;;;;;;;;5051973;28;20221;-72
2021/12/28 02:57:38;;;;;;;40.23;23.03;;;;;;;;;;5052762;28;20214;-72
2021/12/28 03:00:07;;;;;;;48.97;24.00;;;;;;;;;;5053831;28;20205;-72
2021/12/28 03:02:33;;;;;;;43.97;22.83;;;;;;;;;;5051764;28;20707;-72
2021/12/28 03:05:00;;;;;;;37.83;21.83;;;;;;;;;;5053728;28;20286;-72
2021/12/28 03:07:30;;;;;;;40.73;21.93;;;;;;;;;;5054454;28;20294;-71
2021/12/28 03:09:56;;;;;;;44.03;22.87;;;;;;;;;;5052560;28;20231;-71
2021/12/28 03:12:24;;;;;;;41.10;22.17;;;;;;;;;;5053977;28;20221;-72
2021/12/28 03:14:50;;;;;;;34.57;20.23;;;;;;;;;;5053930;28;20204;-72
2021/12/28 03:17:17;;;;;;;36.73;22.07;;;;;;;;;;5050780;28;20920;-72
2021/12/28 03:19:43;;;;;;;43.63;22.90;;;;;;;;;;5051643;28;20217;-72
2021/12/28 03:22:09;;;;;;;35.73;21.33;;;;;;;;;;5054076;28;20588;-72
2021/12/28 03:24:36;;;;;;;44.03;23.27;;;;;;;;;;5051660;28;20271;-72
2021/12/28 03:27:03;;;;;;;45.40;22.20;;;;;;;;;;5053244;28;20622;-72
2021/12/28 03:29:30;;;;;;;40.17;23.97;;;;;;;;;;5053232;28;20211;-72
2021/12/28 03:31:57;;;;;;;47.03;24.63;;;;;;;;;;5052259;28;20231;-72
2021/12/28 03:34:23;;;;;;;40.97;24.43;;;;;;;;;;5051968;28;20209;-72
2021/12/28 03:36:49;;;;;;;40.17;21.87;;;;;;;;;;5052638;28;20267;-72
2021/12/28 03:39:16;;;;;;;38.87;24.30;;;;;;;;;;5051684;28;20269;-72
2021/12/28 03:41:42;;;;;;;38.13;23.07;;;;;;;;;;5053117;28;20230;-72
2021/12/28 03:44:09;;;;;;;45.67;24.40;;;;;;;;;;5053325;28;20236;-72
2021/12/28 03:46:36;;;;;;;45.40;23.93;;;;;;;;;;5051996;28;20235;-72
2021/12/28 03:49:04;;;;;;;35.80;22.40;;;;;;;;;;5050537;28;21099;-72
2021/12/28 03:51:30;;;;;;;35.87;19.47;;;;;;;;;;5054021;28;20220;-72
2021/12/28 03:53:57;;;;;;;39.77;21.50;;;;;;;;;;5052195;28;20265;-72
2021/12/28 03:56:23;;;;;;;33.80;19.97;;;;;;;;;;5051377;28;20870;-72
2021/12/28 03:58:51;;;;;;;29.90;18.50;;;;;;;;;;5052867;28;20266;-72
2021/12/28 04:01:21;;;;;;;27.60;16.33;;;;;;;;;;5051823;28;20784;-72
2021/12/28 04:03:49;;;;;;;35.90;19.17;;;;;;;;;;5050832;28;20727;-74
2021/12/28 04:06:18;;;;;;;26.70;16.00;;;;;;;;;;5051476;28;20583;-72
2021/12/28 04:08:45;;;;;;;25.70;16.37;;;;;;;;;;5051283;28;20256;-72
2021/12/28 04:11:25;;;;;;;30.10;17.40;;;;;;;;;;5052184;28;20992;-72
2021/12/28 04:13:53;;;;;;;29.07;17.27;;;;;;;;;;5052500;28;20792;-72
2021/12/28 04:16:21;;;;;;;34.83;17.37;;;;;;;;;;5052107;28;20739;-72
2021/12/28 04:18:49;;;;;;;27.70;16.43;;;;;;;;;;5051229;28;20211;-72
2021/12/28 04:21:15;;;;;;;29.90;16.20;;;;;;;;;;5050960;28;20212;-72
2021/12/28 04:23:42;;;;;;;30.90;16.80;;;;;;;;;;5052090;28;20269;-72
2021/12/28 04:26:08;;;;;;;33.67;17.33;;;;;;;;;;5050019;28;20614;-72
2021/12/28 04:28:35;;;;;;;28.93;16.67;;;;;;;;;;5051335;28;20210;-73
2021/12/28 04:31:02;;;;;;;28.67;16.20;;;;;;;;;;5051270;28;20256;-72
2021/12/28 04:33:28;;;;;;;29.50;15.97;;;;;;;;;;5050297;28;20350;-72
2021/12/28 04:35:56;;;;;;;29.40;15.03;;;;;;;;;;5051259;28;20278;-72
2021/12/28 04:38:22;;;;;;;26.80;14.50;;;;;;;;;;5051871;28;20216;-72
2021/12/28 04:40:49;;;;;;;33.17;15.27;;;;;;;;;;5051823;28;20764;-72
2021/12/28 04:43:16;;;;;;;31.97;15.17;;;;;;;;;;5050166;28;20217;-72
2021/12/28 04:45:42;;;;;;;30.77;15.57;;;;;;;;;;5052224;28;20967;-72
2021/12/28 04:48:09;;;;;;;28.00;14.43;;;;;;;;;;5049908;28;20686;-72
2021/12/28 04:50:40;;;;;;;30.97;14.93;;;;;;;;;;5049310;28;20279;-72
2021/12/28 04:53:11;;;;;;;33.47;15.00;;;;;;;;;;5051645;28;20217;-72
2021/12/28 04:55:40;;;;;;;28.53;13.80;;;;;;;;;;5049178;28;20299;-72
2021/12/28 04:58:07;;;;;;;27.47;13.13;;;;;;;;;;5049870;28;20278;-72
2021/12/28 05:00:35;;;;;;;25.10;13.90;;;;;;;;;;5049634;28;20208;-71
2021/12/28 05:03:01;;;;;;;29.60;12.97;;;;;;;;;;5050903;28;20649;-72
2021/12/28 05:05:28;;;;;;;31.57;13.50;;;;;;;;;;5050494;28;20664;-72
2021/12/28 05:07:55;;;;;;;21.87;11.90;;;;;;;;;;5052448;28;20835;-71
2021/12/28 05:10:23;;;;;;;24.00;12.10;;;;;;;;;;5050406;28;20602;-72
2021/12/28 05:12:50;;;;;;;18.63;11.17;;;;;;;;;;5050869;28;20270;-72
2021/12/28 05:15:18;;;;;;;24.93;11.57;;;;;;;;;;5051620;28;20294;-72
2021/12/28 05:17:44;;;;;;;22.83;11.03;;;;;;;;;;5050922;28;20806;-72
2021/12/28 05:20:12;;;;;;;28.50;12.37;;;;;;;;;;5050391;28;20212;-72
2021/12/28 05:22:39;;;;;;;26.63;12.33;;;;;;;;;;5052071;28;20740;-72
2021/12/28 05:25:06;;;;;;;22.23;12.67;;;;;;;;;;5051026;28;20242;-72
2021/12/28 05:27:34;;;;;;;21.53;10.63;;;;;;;;;;5050028;28;20223;-71
2021/12/28 05:30:00;;;;;;;24.53;11.63;;;;;;;;;;5051130;28;20212;-72
2021/12/28 05:32:27;;;;;;;24.50;11.73;;;;;;;;;;5051762;28;20233;-78
2021/12/28 05:34:53;;;;;;;25.50;11.30;;;;;;;;;;5053381;28;20270;-78
2021/12/28 05:37:19;;;;;;;29.10;11.23;;;;;;;;;;5055251;28;20204;-78
2021/12/28 05:39:46;;;;;;;22.67;11.70;;;;;;;;;;5056516;28;20240;-78
2021/12/28 05:42:12;;;;;;;21.37;9.67;;;;;;;;;;5055114;28;20216;-79
2021/12/28 05:44:40;;;;;;;24.10;11.43;;;;;;;;;;5057326;28;20218;-78
2021/12/28 05:47:07;;;;;;;18.57;10.30;;;;;;;;;;5055465;28;20266;-78
2021/12/28 05:49:33;;;;;;;25.07;9.90;;;;;;;;;;5054042;28;21221;-78
2021/12/28 05:52:00;;;;;;;18.00;9.67;;;;;;;;;;5056718;28;20327;-78
2021/12/28 05:54:27;;;;;;;22.73;9.67;;;;;;;;;;5054953;28;20212;-78
2021/12/28 05:56:53;;;;;;;22.37;9.70;;;;;;;;;;5053461;28;20246;-78
2021/12/28 05:59:20;;;;;;;20.93;8.87;;;;;;;;;;5054122;28;20293;-78
2021/12/28 06:01:48;;;;;;;18.70;8.20;;;;;;;;;;5054127;28;20232;-79
2021/12/28 06:04:14;;;;;;;17.27;7.23;;;;;;;;;;5053477;28;20268;-78
2021/12/28 06:06:41;;;;;;;18.10;6.97;;;;;;;;;;5054732;28;20238;-78
2021/12/28 06:09:07;;;;;;;14.40;6.40;;;;;;;;;;5056323;28;20212;-78
2021/12/28 06:11:34;;;;;;;15.47;6.33;;;;;;;;;;5053594;28;20292;-78
2021/12/28 06:14:01;;;;;;;18.20;5.97;;;;;;;;;;5056047;28;20207;-78
2021/12/28 06:16:28;;;;;;;17.97;6.00;;;;;;;;;;5055026;28;20232;-78
2021/12/28 06:18:55;;;;;;;15.77;5.20;;;;;;;;;;5054614;28;20270;-78
2021/12/28 06:21:22;;;;;;;14.03;4.90;;;;;;;;;;5054480;28;20260;-78
2021/12/28 06:23:49;;;;;;;11.30;4.43;;;;;;;;;;5054376;28;20239;-78
2021/12/28 06:26:16;;;;;;;9.90;5.00;;;;;;;;;;5052479;28;20225;-78
2021/12/28 06:28:43;;;;;;;12.10;5.23;;;;;;;;;;5054698;28;20208;-78
2021/12/28 06:31:09;;;;;;;15.37;6.73;;;;;;;;;;5055504;28;20530;-78
2021/12/28 06:33:36;;;;;;;18.87;5.27;;;;;;;;;;5054146;28;20212;-78
2021/12/28 06:36:05;;;;;;;11.33;4.27;;;;;;;;;;5055142;28;21196;-78
2021/12/28 06:38:32;;;;;;;16.53;4.77;;;;;;;;;;5054482;28;20243;-78
2021/12/28 06:40:58;;;;;;;13.80;5.27;;;;;;;;;;5053490;28;20241;-78
2021/12/28 06:43:25;;;;;;;13.07;4.63;;;;;;;;;;5055213;28;21189;-77
2021/12/28 06:45:54;;;;;;;13.07;4.90;;;;;;;;;;5054005;28;20704;-77
2021/12/28 06:48:20;;;;;;;12.57;5.33;;;;;;;;;;5054516;28;20264;-78
2021/12/28 06:50:47;;;;;;;11.87;4.77;;;;;;;;;;5053075;28;20212;-78
2021/12/28 06:53:15;;;;;;;13.13;4.80;;;;;;;;;;5054206;28;20253;-79
2021/12/28 06:55:41;;;;;;;10.37;4.40;;;;;;;;;;5053045;28;20220;-78
2021/12/28 06:58:08;;;;;;;9.63;4.40;;;;;;;;;;5053064;28;20220;-78
2021/12/28 07:00:34;;;;;;;11.83;4.90;;;;;;;;;;5053760;28;20266;-78
2021/12/28 07:03:02;;;;;;;14.60;4.50;;;;;;;;;;5052134;28;21155;-78
2021/12/28 07:05:29;;;;;;;10.93;4.40;;;;;;;;;;5051808;28;20229;-78
2021/12/28 07:07:55;;;;;;;14.13;4.20;;;;;;;;;;5053942;28;20243;-78
2021/12/28 07:10:23;;;;;;;10.10;4.50;;;;;;;;;;5050566;28;20239;-79
2021/12/28 07:12:50;;;;;;;12.23;4.60;;;;;;;;;;5052782;28;20667;-78
2021/12/28 07:15:17;;;;;;;10.90;4.67;;;;;;;;;;5051334;28;20300;-79
2021/12/28 07:17:44;;;;;;;12.23;4.80;;;;;;;;;;5052268;28;20258;-79
2021/12/28 07:20:12;;;;;;;12.03;4.70;;;;;;;;;;5052145;28;20320;-79
2021/12/28 07:22:38;;;;;;;15.47;5.33;;;;;;;;;;5050363;28;20228;-79
2021/12/28 07:25:06;;;;;;;12.33;4.50;;;;;;;;;;5051676;28;20243;-78
2021/12/28 07:27:34;;;;;;;14.27;5.00;;;;;;;;;;5050861;28;21052;-79
2021/12/28 07:30:00;;;;;;;14.13;5.30;;;;;;;;;;5052117;28;20243;-79
2021/12/28 07:32:26;;;;;;;15.23;5.17;;;;;;;;;;5051792;28;20222;-79
2021/12/28 07:34:53;;;;;;;14.13;5.20;;;;;;;;;;5051457;28;20224;-79
2021/12/28 07:37:19;;;;;;;11.50;5.17;;;;;;;;;;5053411;28;20199;-79
2021/12/28 07:39:47;;;;;;;14.63;5.87;;;;;;;;;;5050719;28;20240;-79
2021/12/28 07:42:13;;;;;;;11.40;5.50;;;;;;;;;;5051831;28;20212;-79
2021/12/28 07:44:41;;;;;;;8.80;4.87;;;;;;;;;;5051229;28;20578;-79
2021/12/28 07:47:08;;;;;;;12.70;4.43;;;;;;;;;;5049640;28;20282;-79
2021/12/28 07:49:34;;;;;;;11.07;4.27;;;;;;;;;;5050613;28;20201;-79
2021/12/28 07:52:01;;;;;;;9.97;4.37;;;;;;;;;;5050360;28;20725;-78
2021/12/28 07:54:27;;;;;;;10.20;4.50;;;;;;;;;;5050129;28;20216;-79
2021/12/28 07:56:54;;;;;;;9.17;4.67;;;;;;;;;;5051638;28;20252;-79
2021/12/28 07:59:20;;;;;;;10.37;4.40;;;;;;;;;;5053376;28;20647;-78
2021/12/28 08:01:48;;;;;;;8.87;3.90;;;;;;;;;;5051944;28;20575;-79
2021/12/28 08:04:15;;;;;;;8.93;4.53;;;;;;;;;;5048189;28;20209;-78
2021/12/28 08:06:41;;;;;;;12.87;4.33;;;;;;;;;;5051413;28;20258;-79
2021/12/28 08:09:08;;;;;;;11.53;4.00;;;;;;;;;;5048801;28;20534;-79
2021/12/28 08:11:35;;;;;;;9.97;4.30;;;;;;;;;;5050080;28;20282;-78
2021/12/28 08:14:02;;;;;;;10.93;4.43;;;;;;;;;;5050420;28;20537;-79
2021/12/28 08:16:28;;;;;;;9.27;4.03;;;;;;;;;;5050043;28;20406;-79
2021/12/28 08:18:56;;;;;;;7.27;3.67;;;;;;;;;;5053525;28;20234;-79
2021/12/28 08:21:22;;;;;;;10.17;4.10;;;;;;;;;;5049724;28;20217;-78
2021/12/28 08:23:49;;;;;;;12.03;4.70;;;;;;;;;;5049456;28;20244;-78
2021/12/28 08:26:16;;;;;;;11.43;4.73;;;;;;;;;;5050237;28;20245;-78
2021/12/28 08:28:44;;;;;;;12.40;5.20;;;;;;;;;;5048834;28;20584;-78
2021/12/28 08:31:11;;;;;;;12.00;4.77;;;;;;;;;;5052547;28;20804;-78
2021/12/28 08:33:37;;;;;;;17.53;5.77;;;;;;;;;;5049591;28;20710;-78
2021/12/28 08:36:06;;;;;;;13.27;5.83;;;;;;;;;;5052167;28;20627;-78
2021/12/28 08:38:32;;;;;;;9.00;5.23;;;;;;;;;;5053334;28;20213;-78
2021/12/28 08:41:00;;;;;;;14.43;5.87;;;;;;;;;;5051484;28;20738;-78
2021/12/28 08:43:27;;;;;;;16.47;6.43;;;;;;;;;;5053304;28;21097;-78
2021/12/28 08:45:53;;;;;;;18.97;6.73;;;;;;;;;;5050807;28;20258;-79
2021/12/28 08:48:20;;;;;;;16.37;6.90;;;;;;;;;;5053680;28;20224;-78
2021/12/28 08:50:47;;;;;;;16.53;6.83;;;;;;;;;;5049174;28;20223;-78
2021/12/28 08:53:15;;;;;;;14.20;6.93;;;;;;;;;;5051152;28;20664;-78
2021/12/28 08:55:42;;;;;;;14.17;7.00;;;;;;;;;;5051223;28;20250;-78
2021/12/28 08:58:09;;;;;;;15.27;7.57;;;;;;;;;;5051713;28;20224;-79
2021/12/28 09:00:37;;;;;;;12.30;6.17;;;;;;;;;;5051899;28;20623;-78
2021/12/28 09:03:03;;;;;;;12.70;7.17;;;;;;;;;;5049869;28;20682;-78
2021/12/28 09:05:31;;;;;;;13.97;7.17;;;;;;;;;;5051624;28;20341;-78
2021/12/28 09:08:00;;;;;;;13.60;6.80;;;;;;;;;;5050741;28;20289;-77
2021/12/28 09:10:28;;;;;;;10.30;6.17;;;;;;;;;;5052302;28;20239;-78
2021/12/28 09:12:56;;;;;;;13.50;7.53;;;;;;;;;;5055642;28;20262;-78
2021/12/28 09:15:23;;;;;;;13.97;6.87;;;;;;;;;;5053317;28;20213;-78
2021/12/28 09:17:50;;;;;;;11.80;7.20;;;;;;;;;;5056518;28;20299;-78
2021/12/28 09:20:19;;;;;;;12.30;6.97;;;;;;;;;;5053258;28;20269;-77
2021/12/28 09:22:47;;;;;;;11.93;6.27;;;;;;;;;;5054656;28;20265;-78
2021/12/28 09:25:16;;;;;;;11.80;6.67;;;;;;;;;;5053487;28;20734;-78
2021/12/28 09:27:44;;;;;;;8.37;5.87;;;;;;;;;;5054284;28;20224;-78
2021/12/28 09:30:12;;;;;;;15.47;7.77;;;;;;;;;;5054399;28;20213;-78
2021/12/28 09:32:39;;;;;;;14.27;7.50;;;;;;;;;;5052317;28;20239;-78
2021/12/28 09:35:07;;;;;;;12.70;7.73;;;;;;;;;;5057006;28;20227;-78
2021/12/28 09:37:34;;;;;;;13.73;7.33;;;;;;;;;;5057359;28;20240;-77
2021/12/28 09:40:03;;;;;;;10.93;7.10;;;;;;;;;;5056583;28;20279;-78
2021/12/28 09:42:30;;;;;;;12.53;7.20;;;;;;;;;;5057056;28;20221;-78
2021/12/28 09:44:58;;;;;;;13.93;7.87;;;;;;;;;;5055957;28;20207;-78
2021/12/28 09:47:24;;;;;;;10.83;6.30;;;;;;;;;;5055736;28;20227;-78
2021/12/28 09:49:51;;;;;;;15.63;6.87;;;;;;;;;;5056325;28;20217;-78
2021/12/28 09:52:19;;;;;;;12.00;7.07;;;;;;;;;;5053844;28;20221;-78
2021/12/28 09:54:46;;;;;;;11.30;7.20;;;;;;;;;;5055269;28;20228;-78
2021/12/28 09:57:16;;;;;;;11.47;7.20;;;;;;;;;;5055474;28;20215;-79
2021/12/28 09:59:43;;;;;;;10.40;6.57;;;;;;;;;;5058379;28;20220;-78
2021/12/28 10:02:12;;;;;;;10.87;6.23;;;;;;;;;;5057144;28;20716;-79
2021/12/28 10:04:51;;;;;;;8.73;6.23;;;;;;;;;;5055881;28;20212;-79
2021/12/28 10:07:21;;;;;;;10.50;6.20;;;;;;;;;;5057891;28;20296;-78
2021/12/28 10:09:48;;;;;;;6.27;5.53;;;;;;;;;;5054818;28;20293;-79
2021/12/28 10:12:27;;;;;;;8.63;6.37;;;;;;;;;;5058835;28;20208;-78
2021/12/28 10:14:56;;;;;;;9.00;6.30;;;;;;;;;;5058270;28;20313;-78
2021/12/28 10:17:26;;;;;;;7.97;5.13;;;;;;;;;;5055978;28;20217;-78
2021/12/28 10:19:52;;;;;;;10.90;6.30;;;;;;;;;;5056702;28;20208;-78
2021/12/28 10:22:32;;;;;;;7.00;5.00;;;;;;;;;;5053118;28;20628;-78
2021/12/28 10:25:03;;;;;;;7.40;5.30;;;;;;;;;;5054812;28;20244;-78
2021/12/28 10:27:31;;;;;;;7.83;4.63;;;;;;;;;;5053583;28;20683;-78
2021/12/28 10:30:05;;;;;;;8.03;4.50;;;;;;;;;;5053371;28;20308;-78
2021/12/28 10:32:34;;;;;;;6.27;4.97;;;;;;;;;;5053506;28;20228;-77
2021/12/28 10:35:04;;;;;;;7.13;4.90;;;;;;;;;;5052435;28;20241;-78
2021/12/28 10:37:34;;;;;;;5.60;5.10;;;;;;;;;;5053284;28;20672;-78
2021/12/28 10:40:02;;;;;;;5.13;4.60;;;;;;;;;;5053060;28;20224;-78
2021/12/28 10:42:44;;;;;;;6.83;4.90;;;;;;;;;;5054158;28;20216;-78
2021/12/28 10:45:13;;;;;;;6.53;5.13;;;;;;;;;;5053900;28;20342;-78
2021/12/28 10:47:41;;;;;;;5.77;4.97;;;;;;;;;;5052367;28;20233;-78
2021/12/28 10:50:26;;;;;;;8.07;4.90;;;;;;;;;;5054949;28;20262;-78
2021/12/28 10:53:03;;;;;;;5.53;4.30;;;;;;;;;;5052328;28;20215;-78
2021/12/28 10:55:29;;;;;;;4.70;3.90;;;;;;;;;;5054914;28;20225;-77
2021/12/28 10:57:57;;;;;;;5.53;4.90;;;;;;;;;;5052171;28;20270;-78
2021/12/28 11:00:29;;;;;;;5.13;4.63;;;;;;;;;;5054588;28;20213;-78
2021/12/28 11:03:26;;;;;;;4.77;4.00;;;;;;;;;;5051436;28;20664;-77
2021/12/28 11:05:54;;;;;;;6.27;4.93;;;;;;;;;;5052822;28;20222;-77
2021/12/28 11:08:21;;;;;;;5.57;4.70;;;;;;;;;;5051830;28;20285;-77
2021/12/28 11:10:51;;;;;;;4.90;4.40;;;;;;;;;;5050600;28;20228;-77
2021/12/28 11:13:20;;;;;;;5.53;4.53;;;;;;;;;;5053216;28;20197;-77
2021/12/28 11:15:48;;;;;;;5.17;4.63;;;;;;;;;;5050466;28;20664;-77
2021/12/28 11:18:21;;;;;;;6.90;5.20;;;;;;;;;;5052679;28;20230;-78
2021/12/28 11:20:49;;;;;;;7.17;4.90;;;;;;;;;;5051409;28;20196;-78
2021/12/28 11:23:18;;;;;;;6.07;5.47;;;;;;;;;;5053467;28;20242;-78
2021/12/28 11:25:44;;;;;;;5.90;5.30;;;;;;;;;;5053444;28;20247;-78
2021/12/28 11:28:13;;;;;;;5.40;4.80;;;;;;;;;;5051121;28;20241;-78
2021/12/28 11:30:40;;;;;;;7.57;6.20;;;;;;;;;;5053808;28;20224;-78
2021/12/28 11:33:08;;;;;;;6.87;5.70;;;;;;;;;;5050983;28;20230;-78
2021/12/28 11:35:38;;;;;;;6.67;5.53;;;;;;;;;;5053787;28;20220;-78
2021/12/28 11:38:04;;;;;;;8.23;6.10;;;;;;;;;;5051566;28;20216;-78
2021/12/28 11:40:31;;;;;;;8.40;7.40;;;;;;;;;;5053185;28;20231;-78
2021/12/28 11:42:58;;;;;;;7.07;6.10;;;;;;;;;;5048745;28;20215;-78
2021/12/28 11:45:24;;;;;;;8.03;6.30;;;;;;;;;;5053870;28;20220;-78
2021/12/28 11:47:51;;;;;;;7.83;6.90;;;;;;;;;;5050641;28;20715;-78
2021/12/28 11:50:17;;;;;;;7.50;6.83;;;;;;;;;;5052648;28;20262;-78
2021/12/28 11:52:45;;;;;;;7.63;6.83;;;;;;;;;;5053025;28;20267;-78
2021/12/28 11:55:12;;;;;;;7.83;6.63;;;;;;;;;;5054130;28;20232;-78
2021/12/28 11:57:50;;;;;;;7.37;6.67;;;;;;;;;;5051606;28;20216;-78
2021/12/28 12:00:19;;;;;;;7.27;6.57;;;;;;;;;;5050319;28;20220;-78
2021/12/28 12:02:49;;;;;;;6.43;5.57;;;;;;;;;;5052297;28;20580;-77
2021/12/28 12:05:17;;;;;;;7.53;6.83;;;;;;;;;;5050909;28;20219;-77
2021/12/28 12:07:46;;;;;;;8.17;6.87;;;;;;;;;;5052809;28;20233;-77
2021/12/28 12:10:26;;;;;;;7.00;6.27;;;;;;;;;;5050231;28;20227;-77
2021/12/28 12:12:56;;;;;;;7.23;6.53;;;;;;;;;;5050493;28;20223;-77
2021/12/28 12:15:25;;;;;;;7.93;7.13;;;;;;;;;;5049147;28;20217;-77
2021/12/28 12:17:57;;;;;;;7.73;6.93;;;;;;;;;;5052974;28;20236;-77
2021/12/28 12:20:33;;;;;;;6.97;6.27;;;;;;;;;;5048586;28;20691;-77
2021/12/28 12:23:18;;;;;;;7.17;5.60;;;;;;;;;;5050934;28;20253;-77
2021/12/28 12:25:50;;;;;;;6.60;6.00;;;;;;;;;;5050774;28;20227;-77
2021/12/28 12:28:21;;;;;;;6.30;5.30;;;;;;;;;;5048738;28;20229;-77
2021/12/28 12:30:49;;;;;;;6.67;5.97;;;;;;;;;;5051060;28;20235;-77
2021/12/28 12:33:17;;;;;;;5.90;5.40;;;;;;;;;;5048788;28;20233;-77
2021/12/28 12:35:50;;;;;;;6.67;5.57;;;;;;;;;;5052000;28;20261;-77
2021/12/28 12:38:40;;;;;;;6.43;5.47;;;;;;;;;;5050483;28;20587;-77
2021/12/28 12:41:16;;;;;;;5.80;5.17;;;;;;;;;;5051092;28;20240;-78
2021/12/28 12:43:49;;;;;;;6.53;5.53;;;;;;;;;;5051676;28;20237;-78
2021/12/28 12:46:22;;;;;;;5.10;4.60;;;;;;;;;;5049802;28;20663;-78
2021/12/28 12:49:04;;;;;;;5.43;4.43;;;;;;;;;;5051068;28;20224;-78
2021/12/28 12:51:35;;;;;;;8.20;5.73;;;;;;;;;;5050288;28;20660;-78
2021/12/28 12:54:16;;;;;;;6.97;5.63;;;;;;;;;;5052612;28;20865;-77
2021/12/28 12:56:57;;;;;;;7.03;5.27;;;;;;;;;;5048592;28;20232;-77
2021/12/28 12:59:27;;;;;;;9.83;6.20;;;;;;;;;;5049431;28;20217;-76
2021/12/28 13:02:05;;;;;;;6.70;5.77;;;;;;;;;;5047994;28;20228;-76
2021/12/28 13:04:53;;;;;;;6.90;5.83;;;;;;;;;;5051371;28;20220;-76
2021/12/28 13:07:29;;;;;;;9.47;6.27;;;;;;;;;;5045505;28;20810;-75
2021/12/28 13:10:07;;;;;;;9.13;5.23;;;;;;;;;;5049643;28;20233;-75
2021/12/28 13:12:35;;;;;;;6.90;5.47;;;;;;;;;;5049724;28;20615;-76
2021/12/28 13:15:02;;;;;;;6.73;3.70;;;;;;;;;;5040032;28;20413;-75
2021/12/28 13:17:30;;;;;;;4.23;2.60;;;;;;;;;;5046456;28;20429;-76
2021/12/28 13:20:05;;;;;;;5.50;1.60;;;;;;;;;;5047942;28;20211;-76
2021/12/28 13:22:33;;;;;;;4.23;1.57;;;;;;;;;;5048713;28;20218;-76
2021/12/28 13:25:02;;;;;;;5.90;1.53;;;;;;;;;;5048692;28;20433;-76
2021/12/28 13:27:30;;;;;;;4.53;1.53;;;;;;;;;;5047557;28;20237;-76
2021/12/28 13:29:58;;;;;;;6.23;1.57;;;;;;;;;;5051475;28;20316;-76
2021/12/28 13:32:34;;;;;;;3.70;1.40;;;;;;;;;;5050366;28;20320;-76
2021/12/28 13:35:10;;;;;;;5.37;1.50;;;;;;;;;;5051488;28;20207;-75
2021/12/28 13:37:40;;;;;;;6.00;1.70;;;;;;;;;;5050736;28;20217;-75
2021/12/28 13:40:13;;;;;;;5.23;1.50;;;;;;;;;;5049818;28;20231;-75
2021/12/28 13:42:43;;;;;;;6.57;2.03;;;;;;;;;;5048608;28;20672;-75
2021/12/28 13:45:11;;;;;;;7.20;2.30;;;;;;;;;;5049400;28;20240;-75
2021/12/28 13:47:42;;;;;;;10.53;2.20;;;;;;;;;;5050767;28;20275;-75
2021/12/28 13:50:12;;;;;;;8.47;2.70;;;;;;;;;;5047474;28;20300;-75
2021/12/28 13:52:44;;;;;;;8.73;2.40;;;;;;;;;;5050808;28;20209;-76
2021/12/28 13:55:15;;;;;;;4.13;1.73;;;;;;;;;;5049028;28;20232;-76
2021/12/28 13:57:41;;;;;;;8.53;2.20;;;;;;;;;;5055742;28;20217;-75
2021/12/28 14:00:11;;;;;;;12.47;2.37;;;;;;;;;;5051773;28;20204;-76
2021/12/28 14:02:38;;;;;;;8.00;1.90;;;;;;;;;;5052694;28;20229;-76
2021/12/28 14:05:06;;;;;;;7.17;1.93;;;;;;;;;;5055320;28;20223;-76
2021/12/28 14:07:34;;;;;;;6.80;2.23;;;;;;;;;;5052881;28;20656;-76
2021/12/28 14:10:01;;;;;;;8.07;1.73;;;;;;;;;;5050722;28;20298;-76
2021/12/28 14:12:28;;;;;;;13.57;3.63;;;;;;;;;;5051027;28;20354;-76
2021/12/28 14:14:55;;;;;;;11.50;2.70;;;;;;;;;;5050487;28;20205;-76
2021/12/28 14:17:23;;;;;;;10.20;2.20;;;;;;;;;;5051545;28;20221;-76
2021/12/28 14:19:55;;;;;;;10.50;2.60;;;;;;;;;;5050228;28;20212;-76
2021/12/28 14:22:22;;;;;;;13.53;2.93;;;;;;;;;;5053290;28;20208;-76
2021/12/28 14:24:53;;;;;;;9.33;2.20;;;;;;;;;;5052491;28;20228;-76
2021/12/28 14:27:24;;;;;;;10.47;2.63;;;;;;;;;;5051071;28;20207;-77
2021/12/28 14:30:01;;;;;;;10.47;3.07;;;;;;;;;;5054892;28;20204;-77
2021/12/28 14:32:36;;;;;;;13.33;2.60;;;;;;;;;;5050468;28;20290;-77
2021/12/28 14:35:05;;;;;;;16.23;3.03;;;;;;;;;;5054130;28;20270;-76
2021/12/28 14:37:35;;;;;;;16.43;3.43;;;;;;;;;;5053210;28;20213;-76